Time;durP1;ratioP1;P1;durP2;ratioP2;P2;SDS_P1;SDS_P2;PMS_P1;PMS_P2;Temp;Humidity;BMP_temperature;BMP_pressure;BME280_temperature;BME280_humidity;BME280_pressure;Samples;Min_cycle;Max_cycle;Signal;HPM_P1;HPM_P2
2022/11/12 00:01:11;;;;;;;1.70;1.20;;;19.60;60.60;;;;;;6292055;28;20031;-68
2022/11/12 00:04:11;;;;;;;2.03;1.30;;;19.60;60.70;;;;;;6291923;28;20471;-68
2022/11/12 00:07:12;;;;;;;2.60;1.50;;;19.60;60.60;;;;;;6291710;28;20453;-68
2022/11/12 00:10:12;;;;;;;1.65;0.90;;;19.60;60.60;;;;;;6291531;28;20046;-67
2022/11/12 00:13:13;;;;;;;2.03;1.33;;;19.60;60.60;;;;;;6291992;28;20025;-67
2022/11/12 00:16:14;;;;;;;1.70;1.20;;;19.60;60.50;;;;;;6291871;28;20060;-68
2022/11/12 00:19:14;;;;;;;1.42;1.20;;;19.60;60.70;;;;;;6292291;28;20044;-68
2022/11/12 00:22:15;;;;;;;1.08;0.98;;;19.60;60.60;;;;;;6291994;28;20031;-68
2022/11/12 00:25:16;;;;;;;2.42;1.38;;;19.50;60.60;;;;;;6291536;28;20133;-68
2022/11/12 00:28:16;;;;;;;1.83;1.27;;;19.60;60.70;;;;;;6291680;28;20041;-67
2022/11/12 00:31:17;;;;;;;1.85;1.30;;;19.60;60.60;;;;;;6294310;28;20554;-67
2022/11/12 00:34:17;;;;;;;2.13;1.15;;;19.60;60.60;;;;;;6297276;28;20107;-68
2022/11/12 00:37:19;;;;;;;2.58;1.10;;;19.60;60.50;;;;;;6296602;28;20067;-68
2022/11/12 00:40:20;;;;;;;1.77;1.40;;;19.60;60.70;;;;;;6296800;28;20324;-68
2022/11/12 00:43:20;;;;;;;1.88;1.10;;;19.60;60.60;;;;;;6296709;28;20127;-68
2022/11/12 00:46:21;;;;;;;1.13;0.88;;;19.60;60.60;;;;;;6296282;28;20029;-68
2022/11/12 00:49:22;;;;;;;2.30;1.20;;;19.60;60.60;;;;;;6296229;28;20036;-68
2022/11/12 00:52:22;;;;;;;1.77;1.10;;;19.60;60.60;;;;;;6296263;28;20060;-67
2022/11/12 00:55:23;;;;;;;2.83;1.35;;;19.60;60.60;;;;;;6296686;28;20074;-68
2022/11/12 00:58:24;;;;;;;2.72;1.38;;;19.60;60.60;;;;;;6296303;28;20459;-68
2022/11/12 01:01:25;;;;;;;1.45;1.13;;;19.60;60.60;;;;;;6296048;28;20017;-68
2022/11/12 01:04:26;;;;;;;2.30;1.40;;;19.60;60.50;;;;;;6296240;28;20021;-68
2022/11/12 01:07:26;;;;;;;1.27;1.10;;;19.60;60.40;;;;;;6295719;28;20043;-68
2022/11/12 01:10:27;;;;;;;1.05;0.95;;;19.60;60.30;;;;;;6295810;28;20093;-68
2022/11/12 01:13:27;;;;;;;1.55;1.20;;;19.60;60.50;;;;;;6296115;28;20028;-68
2022/11/12 01:16:33;;;;;;;1.25;1.10;;;19.60;60.60;;;;;;6295638;28;20391;-68
2022/11/12 01:19:34;;;;;;;1.48;1.15;;;19.60;60.50;;;;;;6295614;28;20036;-68
2022/11/12 01:22:34;;;;;;;2.10;1.20;;;19.60;60.70;;;;;;6295921;28;20066;-68
2022/11/12 01:25:37;;;;;;;1.70;1.20;;;19.60;60.50;;;;;;6295257;28;20036;-68
2022/11/12 01:28:38;;;;;;;1.63;1.15;;;19.60;60.50;;;;;;6295623;28;20028;-68
2022/11/12 01:31:39;;;;;;;1.85;1.10;;;19.60;60.40;;;;;;6295743;28;20115;-67
2022/11/12 01:34:39;;;;;;;2.10;1.20;;;19.60;60.40;;;;;;6295131;28;20372;-68
2022/11/12 01:37:40;;;;;;;1.42;0.98;;;19.60;60.40;;;;;;6295888;28;20028;-68
2022/11/12 01:40:40;;;;;;;2.10;1.10;;;19.60;60.40;;;;;;6295211;28;20027;-68
2022/11/12 01:43:41;;;;;;;1.17;0.95;;;19.50;60.40;;;;;;6293534;28;20043;-68
2022/11/12 01:47:10;;;;;;;1.60;1.00;;;19.60;60.60;;;;;;6295186;28;20029;-68
2022/11/12 01:50:27;;;;;;;1.80;1.33;;;19.60;60.50;;;;;;6294798;28;20581;-68
2022/11/12 01:53:32;;;;;;;1.80;1.25;;;19.60;60.50;;;;;;6294822;28;20491;-68
2022/11/12 01:56:34;;;;;;;0.95;0.85;;;19.60;60.20;;;;;;6293627;28;20025;-67
2022/11/12 01:59:40;;;;;;;1.13;0.90;;;19.60;60.40;;;;;;6294847;28;20021;-68
2022/11/12 02:02:45;;;;;;;2.22;1.25;;;19.60;60.50;;;;;;6294782;28;20012;-67
2022/11/12 02:05:50;;;;;;;1.38;0.95;;;19.50;60.40;;;;;;6294786;28;20031;-68
2022/11/12 02:08:50;;;;;;;2.28;1.20;;;19.50;60.40;;;;;;6293913;28;20051;-69
2022/11/12 02:11:51;;;;;;;2.17;1.25;;;19.50;60.50;;;;;;6294172;28;20020;-68
2022/11/12 02:14:52;;;;;;;1.85;1.10;;;19.50;60.40;;;;;;6294784;28;20375;-67
2022/11/12 02:17:52;;;;;;;1.73;1.13;;;19.50;60.40;;;;;;6294570;28;20029;-67
2022/11/12 02:20:56;;;;;;;2.20;1.10;;;19.60;60.60;;;;;;6294398;28;20407;-68
2022/11/12 02:24:03;;;;;;;1.95;1.15;;;19.50;60.50;;;;;;6293340;28;20024;-68
2022/11/12 02:27:06;;;;;;;1.45;1.15;;;19.50;60.50;;;;;;6293560;28;20028;-67
2022/11/12 02:30:07;;;;;;;1.45;1.05;;;19.50;60.50;;;;;;6294292;28;20098;-66
2022/11/12 02:33:07;;;;;;;2.38;1.23;;;19.50;60.50;;;;;;6294593;28;20028;-68
2022/11/12 02:36:08;;;;;;;1.40;1.00;;;19.50;60.60;;;;;;6293829;28;20024;-68
2022/11/12 02:39:09;;;;;;;1.45;0.90;;;19.50;60.50;;;;;;6293307;28;20060;-68
2022/11/12 02:42:09;;;;;;;1.08;0.90;;;19.50;60.40;;;;;;6293748;28;20056;-68
2022/11/12 02:45:10;;;;;;;1.40;0.90;;;19.50;60.50;;;;;;6294062;28;20023;-68
2022/11/12 02:48:11;;;;;;;1.20;0.90;;;19.50;60.50;;;;;;6292844;28;20518;-69
2022/11/12 02:51:11;;;;;;;1.35;1.00;;;19.50;60.50;;;;;;6293591;28;20048;-68
2022/11/12 02:54:12;;;;;;;1.58;1.00;;;19.50;60.40;;;;;;6292891;28;20013;-67
2022/11/12 02:57:12;;;;;;;1.20;0.90;;;19.50;60.50;;;;;;6294141;28;20013;-66
2022/11/12 03:00:13;;;;;;;1.67;0.90;;;19.50;60.50;;;;;;6293290;28;20485;-68
2022/11/12 03:03:14;;;;;;;1.15;0.80;;;19.50;60.50;;;;;;6293347;28;20247;-69
2022/11/12 03:06:15;;;;;;;1.20;0.95;;;19.50;60.50;;;;;;6293223;28;20360;-68
2022/11/12 03:09:15;;;;;;;1.63;0.98;;;19.50;60.40;;;;;;6293424;28;20040;-68
2022/11/12 03:12:16;;;;;;;1.00;0.90;;;19.50;60.50;;;;;;6293339;28;20050;-68
2022/11/12 03:15:17;;;;;;;1.60;1.00;;;19.50;60.40;;;;;;6293036;28;20382;-67
2022/11/12 03:18:17;;;;;;;1.60;1.08;;;19.50;60.40;;;;;;6293258;28;20479;-67
2022/11/12 03:21:18;;;;;;;1.38;1.05;;;19.50;60.40;;;;;;6292938;28;20556;-67
2022/11/12 03:24:18;;;;;;;1.48;1.00;;;19.50;60.40;;;;;;6292703;28;20082;-67
2022/11/12 03:27:19;;;;;;;1.25;0.93;;;19.50;60.40;;;;;;6292606;28;20035;-67
2022/11/12 03:30:21;;;;;;;1.65;1.10;;;19.50;60.40;;;;;;6292956;28;20071;-67
2022/11/12 03:33:22;;;;;;;1.15;0.93;;;19.50;60.40;;;;;;6292703;28;20158;-67
2022/11/12 03:36:22;;;;;;;1.80;1.10;;;19.50;60.40;;;;;;6292501;28;20141;-68
2022/11/12 03:39:23;;;;;;;1.60;0.88;;;19.50;60.40;;;;;;6292831;28;20028;-68
2022/11/12 03:42:23;;;;;;;2.53;1.13;;;19.50;60.40;;;;;;6292361;28;20039;-67
2022/11/12 03:45:26;;;;;;;0.95;0.80;;;19.50;60.40;;;;;;6292621;28;20052;-67
2022/11/12 03:48:27;;;;;;;1.08;0.90;;;19.50;60.40;;;;;;6292548;28;20021;-68
2022/11/12 03:51:28;;;;;;;2.28;1.02;;;19.50;60.40;;;;;;6291975;28;20052;-68
2022/11/12 03:54:28;;;;;;;1.23;0.90;;;19.50;60.30;;;;;;6292241;28;20440;-68
2022/11/12 03:57:29;;;;;;;1.27;0.98;;;19.50;60.40;;;;;;6292347;28;20025;-68
2022/11/12 04:00:29;;;;;;;1.27;0.95;;;19.50;60.30;;;;;;6292176;28;20027;-68
2022/11/12 04:03:30;;;;;;;1.65;1.48;;;19.50;60.40;;;;;;6291650;28;20491;-67
2022/11/12 04:09:50;;;;;;;1.73;0.80;;;19.50;60.10;;;;;;6292220;28;20040;-68
2022/11/12 04:22:50;;;;;;;1.17;1.00;;;19.50;60.30;;;;;;6291642;28;20464;-67
2022/11/12 04:32:30;;;;;;;1.10;0.80;;;19.50;60.30;;;;;;6266585;28;20029;-68
2022/11/12 04:35:31;;;;;;;1.65;0.90;;;19.50;60.20;;;;;;6275792;28;20544;-68
2022/11/12 04:38:31;;;;;;;0.85;0.73;;;19.50;60.30;;;;;;6291382;28;20025;-67
2022/11/12 04:45:03;;;;;;;1.20;1.02;;;19.50;60.30;;;;;;6291402;28;20424;-67
2022/11/12 04:48:04;;;;;;;0.93;0.80;;;19.50;60.20;;;;;;6291750;28;20073;-67
2022/11/12 04:54:24;;;;;;;1.48;1.10;;;19.50;60.20;;;;;;6291612;28;20499;-68
2022/11/12 04:57:25;;;;;;;1.20;0.90;;;19.50;60.20;;;;;;6291188;28;20061;-68
2022/11/12 05:00:38;;;;;;;1.25;0.77;;;19.50;60.20;;;;;;6291986;28;20421;-67
2022/11/12 05:03:39;;;;;;;1.35;0.95;;;19.50;60.20;;;;;;6291107;28;20059;-68
2022/11/12 05:06:52;;;;;;;0.98;0.82;;;19.50;60.20;;;;;;6291289;28;20020;-68
2022/11/12 05:09:53;;;;;;;1.25;0.85;;;19.50;61.00;;;;;;6291327;28;20032;-68
2022/11/12 05:12:53;;;;;;;1.45;1.08;;;19.50;59.80;;;;;;6291999;28;20036;-68
2022/11/12 05:15:54;;;;;;;1.33;0.95;;;19.50;60.10;;;;;;6290983;28;20574;-67
2022/11/12 05:18:55;;;;;;;1.23;0.82;;;19.50;60.10;;;;;;6295820;28;20058;-68
2022/11/12 05:22:05;;;;;;;2.50;1.20;;;19.50;60.20;;;;;;6295813;28;20391;-68
2022/11/12 05:25:06;;;;;;;1.98;1.00;;;19.50;60.10;;;;;;6295666;28;20107;-68
2022/11/12 05:28:07;;;;;;;2.35;1.10;;;19.50;60.20;;;;;;6295417;28;20028;-68
2022/11/12 05:31:08;;;;;;;2.20;1.00;;;19.50;60.20;;;;;;6295483;28;20020;-68
2022/11/12 05:34:08;;;;;;;2.80;1.38;;;19.50;60.20;;;;;;6295262;28;20104;-67
2022/11/12 05:37:11;;;;;;;1.20;0.80;;;19.50;60.20;;;;;;6294643;28;20391;-67
2022/11/12 05:40:12;;;;;;;1.65;1.15;;;19.50;60.20;;;;;;6295814;28;20028;-68
2022/11/12 05:43:13;;;;;;;2.45;1.20;;;19.50;60.20;;;;;;6295424;28;20021;-67
2022/11/12 05:46:13;;;;;;;1.73;1.00;;;19.50;60.10;;;;;;6295320;28;20039;-67
2022/11/12 05:49:14;;;;;;;1.65;1.00;;;19.50;60.10;;;;;;6294627;28;20093;-67
2022/11/12 05:52:15;;;;;;;2.40;1.63;;;19.50;60.10;;;;;;6295226;28;20125;-67
2022/11/12 05:55:15;;;;;;;2.17;1.20;;;19.50;60.10;;;;;;6295142;28;20498;-68
2022/11/12 05:58:16;;;;;;;4.75;1.58;;;19.50;60.10;;;;;;6294741;28;20048;-68
2022/11/12 06:01:17;;;;;;;3.05;1.60;;;19.50;60.10;;;;;;6293206;28;20078;-67
2022/11/12 06:04:17;;;;;;;3.33;1.50;;;19.50;60.10;;;;;;6294538;28;20333;-68
2022/11/12 06:07:18;;;;;;;3.17;1.50;;;19.50;60.00;;;;;;6294517;28;20030;-67
2022/11/12 06:10:18;;;;;;;4.32;1.38;;;19.50;60.00;;;;;;6294523;28;20388;-68
2022/11/12 06:13:21;;;;;;;1.60;1.20;;;19.50;59.90;;;;;;6294368;28;20029;-68
2022/11/12 06:16:22;;;;;;;2.80;1.55;;;19.50;60.00;;;;;;6294462;28;20403;-68
2022/11/12 06:19:23;;;;;;;3.90;1.63;;;19.50;59.90;;;;;;6294769;28;20027;-67
2022/11/12 06:22:23;;;;;;;6.50;1.95;;;19.50;60.00;;;;;;6294124;28;20051;-67
2022/11/12 06:25:24;;;;;;;7.07;2.30;;;19.50;59.80;;;;;;6294240;28;20021;-67
2022/11/12 06:28:24;;;;;;;4.80;1.90;;;19.50;59.90;;;;;;6293265;28;20036;-67
2022/11/12 06:31:25;;;;;;;4.35;1.77;;;19.50;59.70;;;;;;6294150;28;20033;-67
2022/11/12 06:34:25;;;;;;;4.32;1.90;;;19.50;59.90;;;;;;6293920;28;20024;-68
2022/11/12 06:37:26;;;;;;;6.32;2.78;;;19.50;60.20;;;;;;6293929;28;20024;-67
2022/11/12 06:40:27;;;;;;;3.92;1.92;;;19.50;60.70;;;;;;6293929;28;20056;-67
2022/11/12 06:43:30;;;;;;;3.70;1.60;;;19.50;60.80;;;;;;6293508;28;20475;-67
2022/11/12 06:46:30;;;;;;;5.10;1.85;;;19.50;61.00;;;;;;6293854;28;20069;-68
2022/11/12 06:49:31;;;;;;;3.42;1.67;;;19.50;61.20;;;;;;6293127;28;20029;-68
2022/11/12 06:52:32;;;;;;;4.50;1.73;;;19.50;61.20;;;;;;6293852;28;20106;-68
2022/11/12 06:55:32;;;;;;;3.70;1.55;;;19.50;60.90;;;;;;6293459;28;20032;-67
2022/11/12 06:58:33;;;;;;;5.13;1.60;;;19.50;60.90;;;;;;6293122;28;20024;-68
2022/11/12 07:01:34;;;;;;;2.40;1.52;;;19.50;60.80;;;;;;6293580;28;20475;-67
2022/11/12 07:04:35;;;;;;;2.25;1.42;;;19.50;60.70;;;;;;6293542;28;20027;-68
2022/11/12 07:07:35;;;;;;;3.78;1.67;;;19.50;60.60;;;;;;6293758;28;20013;-67
2022/11/12 07:10:36;;;;;;;4.85;1.70;;;19.50;60.50;;;;;;6292869;28;20392;-68
2022/11/12 07:13:37;;;;;;;3.17;1.60;;;19.50;61.40;;;;;;6292995;28;20123;-68
2022/11/12 07:16:37;;;;;;;3.95;1.30;;;19.50;60.40;;;;;;6292689;28;20028;-67
2022/11/12 07:19:38;;;;;;;4.80;1.40;;;19.50;60.40;;;;;;6292778;28;20025;-68
2022/11/12 07:22:38;;;;;;;2.58;1.30;;;19.50;60.40;;;;;;6293037;28;20500;-67
2022/11/12 07:25:39;;;;;;;5.00;1.23;;;19.50;60.30;;;;;;6293013;28;20043;-67
2022/11/12 07:28:40;;;;;;;2.63;1.35;;;19.50;60.30;;;;;;6292367;28;20111;-66
2022/11/12 07:31:40;;;;;;;3.92;1.50;;;19.50;60.30;;;;;;6292762;28;20028;-68
2022/11/12 07:34:41;;;;;;;2.95;1.52;;;19.50;60.20;;;;;;6292508;28;20054;-66
2022/11/12 07:37:42;;;;;;;3.20;1.63;;;19.50;60.20;;;;;;6292561;28;20021;-68
2022/11/12 07:40:42;;;;;;;3.30;1.48;;;19.50;60.10;;;;;;6292561;28;20096;-68
2022/11/12 07:43:45;;;;;;;2.40;1.40;;;19.50;60.20;;;;;;6292516;28;20029;-67
2022/11/12 07:46:46;;;;;;;3.80;1.83;;;19.50;60.10;;;;;;6292564;28;20101;-68
2022/11/12 07:49:46;;;;;;;2.90;1.50;;;19.50;60.10;;;;;;6292214;28;20334;-68
2022/11/12 07:52:47;;;;;;;2.10;1.23;;;19.50;60.10;;;;;;6292252;28;20553;-68
2022/11/12 07:56:01;;;;;;;2.72;1.45;;;19.50;60.10;;;;;;6292467;28;20032;-67
2022/11/12 07:59:01;;;;;;;3.45;1.50;;;19.50;60.10;;;;;;6291870;28;20062;-68
2022/11/12 08:02:02;;;;;;;3.78;1.75;;;19.50;60.10;;;;;;6292484;28;20107;-68
2022/11/12 08:05:03;;;;;;;3.38;1.33;;;19.50;60.10;;;;;;6291928;28;20029;-68
2022/11/12 08:08:04;;;;;;;3.20;1.38;;;19.50;60.00;;;;;;6292504;28;20024;-68
2022/11/12 08:11:04;;;;;;;1.88;1.13;;;19.50;60.00;;;;;;6291599;28;20028;-67
2022/11/12 08:14:05;;;;;;;2.58;1.40;;;19.50;60.00;;;;;;6292287;28;20017;-68
2022/11/12 08:17:05;;;;;;;3.60;1.20;;;19.50;60.00;;;;;;6291812;28;20033;-68
2022/11/12 08:20:07;;;;;;;4.78;1.40;;;19.50;60.00;;;;;;6291641;28;20029;-68
2022/11/12 08:23:07;;;;;;;3.17;1.60;;;19.50;60.00;;;;;;6292249;28;20063;-68
2022/11/12 08:26:12;;;;;;;2.55;1.48;;;19.50;60.00;;;;;;6291905;28;20405;-68
2022/11/12 08:29:13;;;;;;;2.25;1.13;;;19.50;60.00;;;;;;6291615;28;20551;-67
2022/11/12 08:32:14;;;;;;;1.75;1.10;;;19.50;59.80;;;;;;6292069;28;20028;-67
2022/11/12 08:35:15;;;;;;;2.55;1.23;;;19.50;60.00;;;;;;6291671;28;20483;-67
2022/11/12 08:38:16;;;;;;;3.28;1.10;;;19.50;60.00;;;;;;6291668;28;20071;-67
2022/11/12 08:41:17;;;;;;;2.05;1.33;;;19.50;59.90;;;;;;6291443;28;20029;-68
2022/11/12 08:44:17;;;;;;;1.58;1.20;;;19.50;60.00;;;;;;6291536;28;20044;-67
2022/11/12 08:47:18;;;;;;;3.05;1.33;;;19.50;60.00;;;;;;6292181;28;20314;-68
2022/11/12 08:50:19;;;;;;;3.42;1.55;;;19.50;60.00;;;;;;6291058;28;20075;-68
2022/11/12 08:53:21;;;;;;;2.00;1.27;;;19.50;60.00;;;;;;6295800;28;20029;-67
2022/11/12 08:56:21;;;;;;;3.47;1.35;;;19.50;60.00;;;;;;6296895;28;20036;-69
2022/11/12 08:59:22;;;;;;;2.00;1.17;;;19.50;60.00;;;;;;6296259;28;20020;-68
2022/11/12 09:02:23;;;;;;;2.40;1.40;;;19.50;60.00;;;;;;6296335;28;20613;-68
2022/11/12 09:05:23;;;;;;;2.53;1.10;;;19.50;60.00;;;;;;6295697;28;20109;-66
2022/11/12 09:08:24;;;;;;;2.42;1.40;;;19.50;60.00;;;;;;6296323;28;20028;-67
2022/11/12 09:11:25;;;;;;;2.83;1.48;;;19.50;60.00;;;;;;6295897;28;20033;-67
2022/11/12 09:14:26;;;;;;;2.70;1.10;;;19.50;60.00;;;;;;6295622;28;20422;-69
2022/11/12 09:17:28;;;;;;;1.52;1.10;;;19.50;60.00;;;;;;6295710;28;20020;-67
2022/11/12 09:20:29;;;;;;;2.08;1.20;;;19.50;60.00;;;;;;6295757;28;20083;-67
2022/11/12 09:23:32;;;;;;;1.15;0.90;;;19.50;60.00;;;;;;6296045;28;20625;-68
2022/11/12 09:26:32;;;;;;;1.73;1.10;;;19.50;60.00;;;;;;6295413;28;20020;-67
2022/11/12 09:29:33;;;;;;;1.75;1.20;;;19.50;60.10;;;;;;6295555;28;20043;-68
2022/11/12 09:32:33;;;;;;;1.90;1.17;;;19.50;60.10;;;;;;6295326;28;20021;-68
2022/11/12 09:35:34;;;;;;;1.50;1.10;;;19.50;60.10;;;;;;6295302;28;20017;-67
2022/11/12 09:38:35;;;;;;;1.90;1.20;;;19.50;60.10;;;;;;6295715;28;20372;-68
2022/11/12 09:41:40;;;;;;;2.25;1.20;;;19.50;60.10;;;;;;6295305;28;20016;-67
2022/11/12 09:44:43;;;;;;;1.85;1.08;;;19.50;60.10;;;;;;6294951;28;20012;-68
2022/11/12 09:47:49;;;;;;;1.98;1.02;;;19.50;61.00;;;;;;6295280;28;20059;-67
2022/11/12 09:50:57;;;;;;;1.33;1.10;;;19.50;60.30;;;;;;6294689;28;20067;-69
2022/11/12 09:54:12;;;;;;;1.58;1.00;;;19.50;60.20;;;;;;6295106;28;20029;-68
2022/11/12 09:57:13;;;;;;;3.00;1.10;;;19.50;60.20;;;;;;6295230;28;20028;-67
2022/11/12 10:00:17;;;;;;;1.73;1.05;;;19.50;60.30;;;;;;6294454;28;20379;-68
2022/11/12 10:03:43;;;;;;;1.38;0.90;;;19.50;60.20;;;;;;6293684;28;20044;-68
2022/11/12 10:06:54;;;;;;;;;;;19.50;60.20;;;;;;6295403;28;20040;-68
2022/11/12 10:10:16;;;;;;;2.38;1.13;;;19.50;60.20;;;;;;6294573;28;19994;-68
2022/11/12 10:13:44;;;;;;;2.00;1.20;;;19.50;60.20;;;;;;6294785;28;20479;-68
2022/11/12 10:17:11;;;;;;;1.63;1.15;;;19.50;60.20;;;;;;6294300;28;20021;-68
2022/11/12 10:20:48;;;;;;;0.90;0.70;;;19.50;60.20;;;;;;6293157;28;20563;-68
2022/11/12 10:23:51;;;;;;;0.85;0.68;;;19.50;60.20;;;;;;6274097;28;20470;-66
2022/11/12 10:26:55;;;;;;;2.15;1.15;;;19.50;60.20;;;;;;6293975;28;20068;-67
2022/11/12 10:30:06;;;;;;;1.60;1.17;;;19.50;60.20;;;;;;6293939;28;20364;-68
2022/11/12 10:33:12;;;;;;;1.50;1.10;;;19.50;60.20;;;;;;6293893;28;20066;-68
2022/11/12 10:36:32;;;;;;;2.30;1.40;;;19.50;60.20;;;;;;6293673;28;20028;-68
2022/11/12 10:39:41;;;;;;;1.77;1.00;;;19.50;60.20;;;;;;6293998;28;20035;-68
2022/11/12 10:43:14;;;;;;;1.98;1.27;;;19.50;60.30;;;;;;6293705;28;20029;-68
2022/11/12 10:46:21;;;;;;;1.50;1.00;;;19.50;60.20;;;;;;6281152;28;20028;-68
2022/11/12 10:49:23;;;;;;;2.08;0.98;;;19.50;60.20;;;;;;6293796;28;20071;-68
2022/11/12 10:52:24;;;;;;;1.35;1.00;;;19.50;60.20;;;;;;6293533;28;20142;-68
2022/11/12 10:55:28;;;;;;;1.48;1.15;;;19.50;60.20;;;;;;6292987;28;20072;-68
2022/11/12 10:58:28;;;;;;;0.98;0.80;;;19.50;60.20;;;;;;6293546;28;20063;-67
2022/11/12 11:01:31;;;;;;;1.83;0.88;;;19.50;60.20;;;;;;6293156;28;20657;-67
2022/11/12 11:04:34;;;;;;;2.08;1.00;;;19.50;60.20;;;;;;6294139;28;20028;-67
2022/11/12 11:07:35;;;;;;;1.48;1.00;;;19.50;60.20;;;;;;6292917;28;20027;-68
2022/11/12 11:10:36;;;;;;;1.75;1.00;;;19.50;60.10;;;;;;6292967;28;20044;-68
2022/11/12 11:13:36;;;;;;;1.60;1.10;;;19.50;60.10;;;;;;6308316;28;20025;-68
2022/11/12 11:16:52;;;;;;;1.30;0.95;;;19.50;60.20;;;;;;6292367;28;20324;-68
2022/11/12 11:19:54;;;;;;;1.70;1.00;;;19.50;60.20;;;;;;6292757;28;20071;-67
2022/11/12 11:23:10;;;;;;;1.13;0.90;;;19.50;60.20;;;;;;6292474;28;20040;-67
2022/11/12 11:26:47;;;;;;;1.33;0.90;;;19.50;60.20;;;;;;6292377;28;20111;-68
2022/11/12 11:30:05;;;;;;;2.42;1.10;;;19.50;60.20;;;;;;6292864;28;20032;-68
2022/11/12 11:33:22;;;;;;;1.23;0.70;;;19.50;60.20;;;;;;6292550;28;20032;-68
2022/11/12 11:36:34;;;;;;;1.48;0.90;;;19.50;60.30;;;;;;6292501;28;20497;-67
2022/11/12 11:39:38;;;;;;;1.45;1.08;;;19.50;60.10;;;;;;6268129;28;20063;-68
2022/11/12 11:42:57;;;;;;;1.52;0.93;;;19.50;60.10;;;;;;6276960;28;20070;-68
2022/11/12 11:46:20;;;;;;;1.25;0.93;;;19.50;60.20;;;;;;6292246;28;20505;-68
2022/11/12 11:49:27;;;;;;;1.50;0.90;;;19.50;60.20;;;;;;6292226;28;20383;-68
2022/11/12 11:52:49;;;;;;;1.20;0.90;;;19.50;60.10;;;;;;6292250;28;20053;-68
2022/11/12 11:56:00;;;;;;;1.30;1.00;;;19.50;60.10;;;;;;6292154;28;20518;-67
2022/11/12 11:59:21;;;;;;;3.22;1.05;;;19.50;60.20;;;;;;6292518;28;20040;-67
2022/11/12 12:02:44;;;;;;;1.55;0.93;;;19.50;60.20;;;;;;6276261;28;20031;-67
2022/11/12 12:06:11;;;;;;;1.40;1.00;;;19.50;60.20;;;;;;6287117;28;20060;-67
2022/11/12 12:09:25;;;;;;;5.32;1.25;;;19.50;60.10;;;;;;6288351;28;20032;-68
2022/11/12 12:12:44;;;;;;;3.33;1.15;;;19.50;60.00;;;;;;6305945;28;20028;-69
2022/11/12 12:16:00;;;;;;;3.78;1.30;;;19.50;60.10;;;;;;6314805;28;20047;-68
2022/11/12 12:19:25;;;;;;;1.88;1.17;;;19.50;60.10;;;;;;6300212;28;20021;-68
2022/11/12 12:22:39;;;;;;;2.50;1.10;;;19.50;60.10;;;;;;6266819;28;20033;-68
2022/11/12 12:25:42;;;;;;;2.13;1.38;;;19.50;60.10;;;;;;6289913;28;20037;-68
2022/11/12 12:28:54;;;;;;;2.17;1.20;;;19.50;60.20;;;;;;6290250;28;20037;-68
2022/11/12 12:32:04;;;;;;;1.45;0.98;;;19.50;60.10;;;;;;6289966;28;20063;-68
2022/11/12 12:35:26;;;;;;;2.53;1.17;;;19.50;60.20;;;;;;6289930;28;20043;-67
2022/11/12 12:38:48;;;;;;;2.50;1.15;;;19.50;60.10;;;;;;6289896;28;20027;-68
2022/11/12 12:41:54;;;;;;;1.20;0.75;;;19.50;60.20;;;;;;6290390;28;20027;-68
2022/11/12 12:45:18;;;;;;;1.30;0.80;;;19.50;60.50;;;;;;6289476;28;20070;-68
2022/11/12 12:48:24;;;;;;;1.58;1.05;;;19.50;60.20;;;;;;6289707;28;20110;-67
2022/11/12 12:51:29;;;;;;;1.55;1.00;;;19.50;60.30;;;;;;6290373;28;20087;-68
2022/11/12 12:54:36;;;;;;;;;;;19.50;60.30;;;;;;6279908;28;20078;-67
2022/11/12 12:57:38;;;;;;;4.10;0.90;;;19.50;60.20;;;;;;6281060;28;19919;-68
2022/11/12 13:00:40;;;;;;;1.38;1.00;;;19.50;60.30;;;;;;6290276;28;20553;-68
2022/11/12 13:03:49;;;;;;;1.05;0.90;;;19.50;60.40;;;;;;6289031;28;20834;-68
2022/11/12 13:06:51;;;;;;;3.92;1.23;;;19.50;60.40;;;;;;6288385;28;20495;-67
2022/11/12 13:10:30;;;;;;;1.00;0.80;;;19.50;60.40;;;;;;6290067;28;20024;-68
2022/11/12 13:13:36;;;;;;;1.42;1.00;;;19.50;60.40;;;;;;6289216;28;20052;-67
2022/11/12 13:16:49;;;;;;;1.30;1.00;;;19.50;60.40;;;;;;6314226;28;20025;-67
2022/11/12 13:19:53;;;;;;;1.55;0.80;;;19.50;60.40;;;;;;6301002;28;20031;-68
2022/11/12 13:22:54;;;;;;;2.08;1.20;;;19.50;60.40;;;;;;6289816;28;20032;-67
2022/11/12 13:26:33;;;;;;;1.13;0.80;;;19.50;60.40;;;;;;6289951;28;20036;-67
2022/11/12 13:29:36;;;;;;;2.13;1.10;;;19.50;60.40;;;;;;6289307;28;20040;-69
2022/11/12 13:32:53;;;;;;;1.83;1.05;;;19.50;60.50;;;;;;6289602;28;20027;-67
2022/11/12 13:36:23;;;;;;;2.15;1.05;;;19.50;60.40;;;;;;6289681;28;20537;-67
2022/11/12 13:39:24;;;;;;;1.45;0.82;;;19.50;60.50;;;;;;6293337;28;20539;-68
2022/11/12 13:45:46;;;;;;;1.15;0.90;;;19.50;60.40;;;;;;6294487;28;20028;-68
2022/11/12 13:48:53;;;;;;;2.25;0.98;;;19.50;60.50;;;;;;6293903;28;20546;-68
2022/11/12 13:51:55;;;;;;;1.58;0.93;;;19.50;60.50;;;;;;6293783;28;20118;-68
2022/11/12 13:55:11;;;;;;;1.42;0.70;;;19.50;60.40;;;;;;6293545;28;20099;-67
2022/11/12 13:58:19;;;;;;;1.90;1.08;;;19.50;60.50;;;;;;6293880;28;20033;-66
2022/11/12 14:01:21;;;;;;;1.27;0.98;;;19.50;60.50;;;;;;6293603;28;20052;-68
2022/11/12 14:04:23;;;;;;;3.78;0.80;;;19.50;60.40;;;;;;6293696;28;20091;-68
2022/11/12 14:07:24;;;;;;;1.25;0.90;;;19.50;61.30;;;;;;6280407;28;20024;-68
2022/11/12 14:10:33;;;;;;;2.38;1.10;;;19.50;60.50;;;;;;6281365;28;20029;-67
2022/11/12 14:13:45;;;;;;;2.30;0.75;;;19.50;60.50;;;;;;6293011;28;20511;-68
2022/11/12 14:16:55;;;;;;;2.00;0.80;;;19.50;60.60;;;;;;6293892;28;20033;-67
2022/11/12 14:19:58;;;;;;;3.95;0.90;;;19.50;60.60;;;;;;6293601;28;20073;-68
2022/11/12 14:23:14;;;;;;;1.38;0.82;;;19.50;60.70;;;;;;6284850;28;20055;-68
2022/11/12 14:26:33;;;;;;;0.90;0.60;;;19.50;60.70;;;;;;6293528;28;20016;-67
2022/11/12 14:29:33;;;;;;;3.47;1.10;;;19.50;60.80;;;;;;6282144;28;20082;-67
2022/11/12 14:32:35;;;;;;;1.95;1.00;;;19.50;60.90;;;;;;6292808;28;20361;-67
2022/11/12 14:35:37;;;;;;;1.90;1.00;;;19.50;60.90;;;;;;6280569;28;20079;-67
2022/11/12 14:38:47;;;;;;;1.60;1.08;;;19.50;61.00;;;;;;6292485;28;20475;-67
2022/11/12 14:41:49;;;;;;;2.20;0.90;;;19.50;61.00;;;;;;6292366;28;20027;-67
2022/11/12 14:44:50;;;;;;;2.90;0.90;;;19.50;61.00;;;;;;6291987;28;20032;-67
2022/11/12 14:47:52;;;;;;;2.60;1.02;;;19.50;61.00;;;;;;6292375;28;20024;-67
2022/11/12 14:51:03;;;;;;;1.00;0.70;;;19.50;61.00;;;;;;6291241;28;20052;-66
2022/11/12 14:54:07;;;;;;;1.70;1.02;;;19.50;61.00;;;;;;6292495;28;20046;-67
2022/11/12 14:57:17;;;;;;;1.23;0.70;;;19.50;61.10;;;;;;6277489;28;20056;-67
2022/11/12 15:00:40;;;;;;;1.23;0.60;;;19.50;61.00;;;;;;6271221;28;20025;-67
2022/11/12 15:03:41;;;;;;;1.73;1.00;;;19.50;60.90;;;;;;6267013;28;20024;-67
2022/11/12 15:06:53;;;;;;;1.65;0.93;;;19.50;60.90;;;;;;6281730;28;20024;-65
2022/11/12 15:09:54;;;;;;;2.35;1.20;;;19.50;60.90;;;;;;6291924;28;20029;-66
2022/11/12 15:13:16;;;;;;;2.20;1.00;;;19.50;60.90;;;;;;6291725;28;20387;-67
2022/11/12 15:16:26;;;;;;;1.45;1.00;;;19.50;60.90;;;;;;6291548;28;20043;-67
2022/11/12 15:19:28;;;;;;;2.40;1.10;;;19.50;60.90;;;;;;6292017;28;20498;-67
2022/11/12 15:22:29;;;;;;;1.42;0.82;;;19.50;60.90;;;;;;6290921;28;20244;-66
2022/11/12 15:25:30;;;;;;;1.88;1.05;;;19.50;60.90;;;;;;6291896;28;20387;-66
2022/11/12 15:28:31;;;;;;;2.17;1.05;;;19.50;61.00;;;;;;6291519;28;20032;-66
2022/11/12 15:31:43;;;;;;;1.60;1.02;;;19.50;61.00;;;;;;6283260;28;20040;-67
2022/11/12 15:34:46;;;;;;;2.67;1.15;;;19.50;61.10;;;;;;6289201;28;20021;-67
2022/11/12 15:37:48;;;;;;;2.17;1.23;;;19.50;61.10;;;;;;6291534;28;20499;-67
2022/11/12 15:40:54;;;;;;;2.88;0.90;;;19.50;61.20;;;;;;6291446;28;20063;-67
2022/11/12 15:43:55;;;;;;;2.55;1.30;;;19.50;61.00;;;;;;6290483;28;20037;-68
2022/11/12 15:46:57;;;;;;;1.83;1.08;;;19.60;61.20;;;;;;6282227;28;20020;-67
2022/11/12 15:49:58;;;;;;;1.63;1.00;;;19.60;61.00;;;;;;6289696;28;20037;-68
2022/11/12 15:52:59;;;;;;;1.67;1.10;;;19.60;61.00;;;;;;6289989;28;20041;-69
2022/11/12 15:56:02;;;;;;;2.58;1.10;;;19.60;61.00;;;;;;6272016;28;20466;-68
2022/11/12 15:59:02;;;;;;;2.08;0.93;;;19.60;61.10;;;;;;6269221;28;20115;-68
2022/11/12 16:02:09;;;;;;;3.60;1.58;;;19.60;61.00;;;;;;6285953;28;20035;-67
2022/11/12 16:05:15;;;;;;;1.98;1.25;;;19.60;61.10;;;;;;6276541;28;20032;-67
2022/11/12 16:08:15;;;;;;;;;;;19.60;61.20;;;;;;6291522;28;20023;-68
2022/11/12 16:11:34;;;;;;;1.98;1.20;;;19.60;61.10;;;;;;6275923;28;20454;-68
2022/11/12 16:14:35;;;;;;;3.22;1.33;;;19.60;61.10;;;;;;6290522;28;20037;-68
2022/11/12 16:17:35;;;;;;;3.15;1.23;;;19.50;61.00;;;;;;6291548;28;20086;-68
2022/11/12 16:20:37;;;;;;;1.40;1.00;;;19.50;61.00;;;;;;6291647;28;20070;-68
2022/11/12 16:23:38;;;;;;;4.65;1.10;;;19.50;61.00;;;;;;6290066;28;20084;-68
2022/11/12 16:26:38;;;;;;;3.17;1.60;;;19.50;61.00;;;;;;6290723;28;20063;-68
2022/11/12 16:29:40;;;;;;;1.70;1.15;;;19.50;61.00;;;;;;6291571;28;20064;-68
2022/11/12 16:32:40;;;;;;;4.88;2.08;;;19.50;60.90;;;;;;6290735;28;20078;-66